createdAt,value
2018-11-27T05:02:18.189Z,19.17
2018-11-27T05:04:46.360Z,20.33
2018-11-27T05:07:14.544Z,20.30
2018-11-27T05:09:42.819Z,19.50
2018-11-27T05:12:10.983Z,19.90
2018-11-27T05:14:39.204Z,18.87
2018-11-27T05:17:08.209Z,19.37
2018-11-27T05:19:36.420Z,20.10
2018-11-27T05:22:04.647Z,18.73
2018-11-27T05:24:32.878Z,22.20
2018-11-27T05:27:01.101Z,19.47
2018-11-27T05:29:29.277Z,21.27
2018-11-27T05:31:57.468Z,20.73
2018-11-27T05:34:25.668Z,21.63
2018-11-27T05:36:53.846Z,19.77
2018-11-27T05:39:22.042Z,19.87
2018-11-27T05:41:50.208Z,20.73
2018-11-27T05:44:18.382Z,20.00
2018-11-27T05:46:46.624Z,21.07
2018-11-27T05:49:14.996Z,20.27
2018-11-27T05:51:43.172Z,20.10
2018-11-27T05:54:11.385Z,20.33
2018-11-27T05:56:39.611Z,22.17
2018-11-27T05:59:07.819Z,22.07
2018-11-27T06:01:36.321Z,21.37
2018-11-27T06:04:04.518Z,23.87
2018-11-27T06:06:32.704Z,22.33
2018-11-27T06:09:08.583Z,22.90
2018-11-27T06:11:36.798Z,21.50
2018-11-27T06:14:05.063Z,22.20
2018-11-27T06:16:33.320Z,21.17
2018-11-27T06:19:01.528Z,24.93
2018-11-27T06:21:29.692Z,22.17
2018-11-27T06:23:57.919Z,21.67
2018-11-27T06:26:26.118Z,22.13
2018-11-27T06:28:54.311Z,27.60
2018-11-27T06:31:22.525Z,20.27
2018-11-27T06:33:50.699Z,21.60
2018-11-27T06:36:18.884Z,21.37
2018-11-27T06:38:47.094Z,22.77
2018-11-27T06:41:15.273Z,22.90
2018-11-27T06:43:43.447Z,24.00
2018-11-27T06:46:11.643Z,24.50
2018-11-27T06:48:39.809Z,23.53
2018-11-27T06:51:08.059Z,24.67
2018-11-27T06:53:36.267Z,25.30
2018-11-27T06:56:04.426Z,22.50
2018-11-27T06:58:32.611Z,24.40
2018-11-27T07:01:00.903Z,24.47
2018-11-27T07:03:29.101Z,21.80
2018-11-27T07:05:57.275Z,24.73
2018-11-27T07:08:25.478Z,21.90
2018-11-27T07:10:53.631Z,23.50
2018-11-27T07:13:23.602Z,23.57
2018-11-27T07:15:52.153Z,21.87
2018-11-27T07:18:20.339Z,24.60
2018-11-27T07:20:48.695Z,27.80
2018-11-27T07:23:16.897Z,24.77
2018-11-27T07:25:45.050Z,25.67
2018-11-27T07:28:13.233Z,20.57
2018-11-27T07:30:42.040Z,23.13
2018-11-27T07:33:10.254Z,24.47
2018-11-27T07:35:38.415Z,23.33
2018-11-27T07:38:06.929Z,24.70
2018-11-27T07:40:35.083Z,26.40
2018-11-27T07:43:04.723Z,23.50
2018-11-27T07:45:32.911Z,24.97
2018-11-27T07:48:01.071Z,25.63
2018-11-27T07:50:29.304Z,26.10
2018-11-27T07:52:57.487Z,27.43
2018-11-27T07:55:25.659Z,25.00
2018-11-27T07:57:54.526Z,25.63
2018-11-27T08:00:24.573Z,23.57
2018-11-27T08:02:53.798Z,28.40
2018-11-27T08:05:27.410Z,25.70
2018-11-27T08:07:56.471Z,27.43
2018-11-27T08:10:28.771Z,25.20
2018-11-27T08:12:56.958Z,26.67
2018-11-27T08:15:26.303Z,27.00
2018-11-27T08:17:54.503Z,29.27
2018-11-27T08:20:26.974Z,25.97
2018-11-27T08:22:55.171Z,27.17
2018-11-27T08:25:23.352Z,26.33
2018-11-27T08:27:51.542Z,28.20
2018-11-27T08:30:20.659Z,27.80
2018-11-27T08:32:48.975Z,26.13
2018-11-27T08:35:18.427Z,27.47
2018-11-27T08:37:47.468Z,23.13
2018-11-27T08:40:16.560Z,27.43
2018-11-27T08:42:44.744Z,29.17
2018-11-27T08:45:20.815Z,24.47
2018-11-27T08:47:49.886Z,26.83
2018-11-27T08:50:19.357Z,26.13
2018-11-27T08:52:49.810Z,27.77
2018-11-27T08:55:21.567Z,24.53
2018-11-27T08:57:49.867Z,25.67
2018-11-27T09:00:19.154Z,24.77
2018-11-27T09:02:47.337Z,25.93
2018-11-27T09:05:15.576Z,25.47
2018-11-27T09:07:44.293Z,28.57
2018-11-27T09:10:16.572Z,27.90
2018-11-27T09:12:44.751Z,27.10
2018-11-27T09:15:14.754Z,25.33
2018-11-27T09:17:46.511Z,28.27
2018-11-27T09:20:14.683Z,27.80
2018-11-27T09:22:42.885Z,26.00
2018-11-27T09:25:12.900Z,28.33
2018-11-27T09:27:41.148Z,27.23
2018-11-27T09:30:19.627Z,28.70
2018-11-27T09:32:47.819Z,28.40
2018-11-27T09:35:16.005Z,29.00
2018-11-27T09:37:44.344Z,28.67
2018-11-27T09:40:14.592Z,29.00
2018-11-27T09:42:42.795Z,27.20
2018-11-27T09:45:16.518Z,28.17
2018-11-27T09:47:54.880Z,25.10
2018-11-27T09:50:27.494Z,29.03
2018-11-27T09:52:57.870Z,26.77
2018-11-27T09:55:32.015Z,28.83
2018-11-27T09:58:00.300Z,25.30
2018-11-27T10:00:30.267Z,24.43
2018-11-27T10:03:00.193Z,25.90
2018-11-27T10:05:28.714Z,24.70
2018-11-27T10:08:01.725Z,28.30
2018-11-27T10:10:29.939Z,24.87
2018-11-27T10:12:59.026Z,24.47
2018-11-27T10:15:29.514Z,23.67
2018-11-27T10:18:03.553Z,22.70
2018-11-27T10:20:34.684Z,26.07
2018-11-27T10:23:03.567Z,25.37
2018-11-27T10:25:31.787Z,23.47
2018-11-27T10:28:00.005Z,26.50
2018-11-27T10:30:28.603Z,23.20
2018-11-27T10:32:57.784Z,24.50
2018-11-27T10:35:36.095Z,25.27
2018-11-27T10:38:04.287Z,24.30
2018-11-27T10:40:32.535Z,23.27
2018-11-27T10:43:00.707Z,26.47
2018-11-27T10:45:28.949Z,24.37
2018-11-27T10:47:57.140Z,23.13
2018-11-27T10:50:25.426Z,22.47
2018-11-27T10:52:54.586Z,22.07
2018-11-27T10:55:23.380Z,21.10
2018-11-27T10:57:51.540Z,23.67
2018-11-27T11:00:29.093Z,20.20
2018-11-27T11:04:03.820Z,20.93
2018-11-27T11:06:32.765Z,22.20
2018-11-27T11:09:01.389Z,20.40
2018-11-27T11:11:29.611Z,23.43
2018-11-27T11:13:57.777Z,21.77
2018-11-27T11:16:26.024Z,23.03
2018-11-27T11:18:54.400Z,23.20
2018-11-27T11:21:22.612Z,23.60
2018-11-27T11:23:51.390Z,23.80
2018-11-27T11:26:19.563Z,23.03
2018-11-27T11:28:49.281Z,20.10
2018-11-27T11:31:17.480Z,23.23
2018-11-27T11:33:45.661Z,22.10
2018-11-27T11:36:13.875Z,20.33
2018-11-27T11:38:42.049Z,22.43
2018-11-27T11:41:10.272Z,21.20
2018-11-27T11:43:38.504Z,23.17
2018-11-27T11:46:06.760Z,20.00
2018-11-27T11:48:34.943Z,22.17
2018-11-27T11:51:03.236Z,20.93
2018-11-27T11:53:31.420Z,22.23
2018-11-27T11:55:59.765Z,20.30
2018-11-27T11:58:27.932Z,23.50
2018-11-27T12:00:56.745Z,20.10
2018-11-27T12:03:25.015Z,19.23
2018-11-27T12:05:53.244Z,20.73
2018-11-27T12:08:21.464Z,21.33
2018-11-27T12:10:49.630Z,22.50
2018-11-27T12:13:17.812Z,19.30
2018-11-27T12:15:46.005Z,19.23
2018-11-27T12:18:14.187Z,18.63
2018-11-27T12:20:42.381Z,22.00
2018-11-27T12:23:11.392Z,20.90
2018-11-27T12:25:40.646Z,22.57
2018-11-27T12:28:14.711Z,19.87
2018-11-27T12:30:38.406Z,21.70
2018-11-27T12:33:07.013Z,20.43
2018-11-27T12:35:35.300Z,20.33
2018-11-27T12:38:03.466Z,18.50
2018-11-27T12:40:31.631Z,19.40
2018-11-27T12:42:59.793Z,18.80
2018-11-27T12:45:29.623Z,19.87
2018-11-27T12:47:58.702Z,20.27
2018-11-27T12:50:39.195Z,19.13
2018-11-27T12:53:08.619Z,18.57
2018-11-27T12:55:37.984Z,20.80
2018-11-27T12:58:06.741Z,19.73
2018-11-27T13:00:35.127Z,20.00
2018-11-27T13:03:03.312Z,20.73
2018-11-27T13:05:38.768Z,20.53
2018-11-27T13:08:19.890Z,22.43
2018-11-27T13:10:48.067Z,18.77
2018-11-27T13:13:16.272Z,21.17
2018-11-27T13:15:44.885Z,20.60
2018-11-27T13:18:13.051Z,20.63
2018-11-27T13:20:41.539Z,22.17
2018-11-27T13:23:09.724Z,19.67
2018-11-27T13:25:38.372Z,22.90
2018-11-27T13:28:08.093Z,21.07
2018-11-27T13:30:40.243Z,20.57
2018-11-27T13:33:26.008Z,19.53
2018-11-27T13:35:54.229Z,20.10
2018-11-27T13:38:22.418Z,21.00
2018-11-27T13:40:50.614Z,21.97
2018-11-27T13:43:21.304Z,22.03
2018-11-27T13:45:49.496Z,21.37
2018-11-27T13:48:17.772Z,20.20
2018-11-27T13:50:45.941Z,22.17
2018-11-27T13:53:14.123Z,21.00
2018-11-27T13:55:42.297Z,21.17
2018-11-27T13:58:10.466Z,20.57
2018-11-27T14:00:38.624Z,21.70
2018-11-27T14:03:10.814Z,18.90
2018-11-27T14:05:35.109Z,21.27
2018-11-27T14:08:04.260Z,20.13
2018-11-27T14:10:32.424Z,21.83
2018-11-27T14:13:00.611Z,19.47
2018-11-27T14:15:28.870Z,22.40
2018-11-27T14:17:57.027Z,20.83
2018-11-27T14:20:25.203Z,23.37
2018-11-27T14:22:53.373Z,21.10
2018-11-27T14:25:21.552Z,23.73
2018-11-27T14:27:50.579Z,20.97
2018-11-27T14:30:21.547Z,23.47
2018-11-27T14:32:49.907Z,21.13
2018-11-27T14:35:18.774Z,23.73
2018-11-27T14:37:47.887Z,21.07
2018-11-27T14:40:18.677Z,23.17
2018-11-27T14:42:46.867Z,23.87
2018-11-27T14:45:16.019Z,20.93
2018-11-27T14:47:44.972Z,24.93
2018-11-27T14:50:13.205Z,21.63
2018-11-27T14:52:41.371Z,23.07
2018-11-27T14:55:12.376Z,21.27
2018-11-27T14:57:40.526Z,24.10
2018-11-27T15:00:11.591Z,23.67
2018-11-27T15:02:39.732Z,23.47
2018-11-27T15:05:10.256Z,22.20
2018-11-27T15:07:38.455Z,25.43
2018-11-27T15:10:08.596Z,26.63
2018-11-27T15:12:36.793Z,32.20
2018-11-27T15:15:05.600Z,25.13
2018-11-27T15:17:33.763Z,35.17
2018-11-27T15:20:01.909Z,36.50
2018-11-27T15:22:30.177Z,35.23
2018-11-27T15:24:58.462Z,29.23
2018-11-27T15:27:26.645Z,34.83
2018-11-27T15:29:54.800Z,47.60
2018-11-27T15:32:22.972Z,26.67
2018-11-27T15:34:51.106Z,22.43
2018-11-27T15:37:19.283Z,23.90
2018-11-27T15:39:47.479Z,23.43
2018-11-27T15:42:15.647Z,23.83
2018-11-27T15:44:43.809Z,27.37
2018-11-27T15:47:12.030Z,26.23
2018-11-27T15:49:40.181Z,25.17
2018-11-27T15:52:08.335Z,22.80
2018-11-27T15:54:36.573Z,24.77
2018-11-27T15:57:04.715Z,23.40
2018-11-27T15:59:32.876Z,21.80
2018-11-27T16:02:01.191Z,24.10
2018-11-27T16:04:29.379Z,25.03
2018-11-27T16:06:57.572Z,24.80
2018-11-27T16:09:25.791Z,26.60
2018-11-27T16:11:53.995Z,26.97
2018-11-27T16:14:22.129Z,25.20
2018-11-27T16:16:50.326Z,26.10
2018-11-27T16:19:18.480Z,27.13
2018-11-27T16:21:46.641Z,25.73
2018-11-27T16:24:14.872Z,27.00
2018-11-27T16:26:43.033Z,29.27
2018-11-27T16:29:11.243Z,27.23
2018-11-27T16:31:39.390Z,27.17
2018-11-27T16:34:07.567Z,27.00
2018-11-27T16:36:35.719Z,24.97
2018-11-27T16:39:06.874Z,26.43
2018-11-27T16:41:35.034Z,26.00
2018-11-27T16:44:03.220Z,27.33
2018-11-27T16:46:31.447Z,26.63
2018-11-27T16:48:59.745Z,26.70
2018-11-27T16:51:28.056Z,25.97
2018-11-27T16:53:56.216Z,24.93
2018-11-27T16:56:24.431Z,28.83
2018-11-27T16:58:52.643Z,26.90
2018-11-27T17:01:20.842Z,26.27
2018-11-27T17:03:49.009Z,27.10
2018-11-27T17:06:17.236Z,26.63
2018-11-27T17:08:45.392Z,24.70
2018-11-27T17:11:13.592Z,27.43
2018-11-27T17:13:41.764Z,24.73
2018-11-27T17:16:09.956Z,26.87
2018-11-27T17:18:38.131Z,30.27
2018-11-27T17:21:06.351Z,27.90
2018-11-27T17:23:34.496Z,27.60
2018-11-27T17:26:04.117Z,29.00
2018-11-27T17:28:31.365Z,28.00
2018-11-27T17:31:09.135Z,29.50
2018-11-27T17:33:39.921Z,28.87
2018-11-27T17:36:09.072Z,27.20
2018-11-27T17:38:37.731Z,27.47
2018-11-27T17:41:06.508Z,30.17
2018-11-27T17:43:34.786Z,28.37
2018-11-27T17:46:03.000Z,30.20
2018-11-27T17:48:31.243Z,31.60
2018-11-27T17:50:59.469Z,31.00
2018-11-27T17:53:27.661Z,30.97
2018-11-27T17:55:55.826Z,29.73
2018-11-27T17:58:24.031Z,29.20
2018-11-27T18:00:52.242Z,29.90
2018-11-27T18:03:20.400Z,30.60
2018-11-27T18:05:48.687Z,30.57
2018-11-27T18:08:16.849Z,31.03
2018-11-27T18:10:45.033Z,30.70
2018-11-27T18:13:13.254Z,31.70
2018-11-27T18:15:41.443Z,30.67
2018-11-27T18:18:10.023Z,30.13
2018-11-27T18:20:38.567Z,29.47
2018-11-27T18:23:07.073Z,31.57
2018-11-27T18:25:35.450Z,30.13
2018-11-27T18:28:03.847Z,29.87
2018-11-27T18:30:32.312Z,30.93
2018-11-27T18:33:00.764Z,30.83
2018-11-27T18:35:29.275Z,28.03
2018-11-27T18:37:57.641Z,30.60
2018-11-27T18:40:25.973Z,30.50
2018-11-27T18:42:54.485Z,29.70
2018-11-27T18:45:27.102Z,28.90
2018-11-27T18:47:55.576Z,30.03
2018-11-27T18:50:25.979Z,30.83
2018-11-27T18:52:54.356Z,31.63
2018-11-27T18:55:22.773Z,29.50
2018-11-27T18:57:51.107Z,31.03
2018-11-27T19:00:24.117Z,29.33
2018-11-27T19:02:52.698Z,30.50
2018-11-27T19:05:21.822Z,33.53
2018-11-27T19:07:50.092Z,31.83
2018-11-27T19:10:25.387Z,32.30
2018-11-27T19:12:53.724Z,31.13
2018-11-27T19:15:29.220Z,29.73
2018-11-27T19:18:00.045Z,30.83
2018-11-27T19:20:28.439Z,31.90
2018-11-27T19:22:56.601Z,29.23
2018-11-27T19:25:24.889Z,29.33
2018-11-27T19:27:53.103Z,32.10
2018-11-27T19:30:22.043Z,33.63
2018-11-27T19:32:50.294Z,34.90
2018-11-27T19:35:25.020Z,33.87
2018-11-27T19:37:48.512Z,31.83
2018-11-27T19:40:18.380Z,31.73
2018-11-27T19:42:46.568Z,29.67
2018-11-27T19:45:21.067Z,29.97
2018-11-27T19:47:49.371Z,30.23
2018-11-27T19:50:17.592Z,32.40
2018-11-27T19:52:46.732Z,31.77
2018-11-27T19:55:15.886Z,31.67
2018-11-27T19:57:44.094Z,32.30
2018-11-27T20:00:16.669Z,33.97
2018-11-27T20:02:45.817Z,32.97
2018-11-27T20:08:08.023Z,33.83
2018-11-27T20:10:36.717Z,33.37
2018-11-27T20:13:05.208Z,32.27
2018-11-27T20:15:33.436Z,31.63
2018-11-27T20:18:01.957Z,33.67
2018-11-27T20:20:36.859Z,32.83
2018-11-27T20:23:21.404Z,30.77
2018-11-27T20:25:56.321Z,31.50
2018-11-27T20:28:25.541Z,30.70
2018-11-27T20:30:53.817Z,33.50
2018-11-27T20:33:22.100Z,34.73
2018-11-27T20:35:56.684Z,35.10
2018-11-27T20:38:25.309Z,35.87
2018-11-27T20:40:54.283Z,34.60
2018-11-27T20:43:22.508Z,35.53
2018-11-27T20:45:50.742Z,34.33
2018-11-27T20:48:22.779Z,34.33
2018-11-27T20:50:52.338Z,35.13
2018-11-27T20:53:22.664Z,36.70
2018-11-27T20:55:51.545Z,36.43
2018-11-27T20:58:21.590Z,36.93
2018-11-27T21:00:51.155Z,39.20
2018-11-27T21:03:19.373Z,39.57
2018-11-27T21:05:47.610Z,34.60
2018-11-27T21:08:19.013Z,36.63
2018-11-27T21:10:47.298Z,37.83
2018-11-27T21:13:15.515Z,38.67
2018-11-27T21:15:44.165Z,37.60
2018-11-27T21:18:12.777Z,39.20
2018-11-27T21:20:42.589Z,39.73
2018-11-27T21:23:10.775Z,37.83
2018-11-27T21:25:40.909Z,39.00
2018-11-27T21:28:15.739Z,37.70
2018-11-27T21:30:55.738Z,39.10
2018-11-27T21:33:28.220Z,36.77
2018-11-27T21:35:59.567Z,36.83
2018-11-27T21:41:30.240Z,36.10
2018-11-27T21:44:38.057Z,36.57
2018-11-27T21:47:29.622Z,35.77
2018-11-27T21:49:57.943Z,38.93
2018-11-27T21:52:26.300Z,38.83
2018-11-27T21:54:54.448Z,35.97
2018-11-27T21:57:22.671Z,36.73
2018-11-27T21:59:50.885Z,37.67
